Time;durP1;ratioP1;P1;durP2;ratioP2;P2;SDS_P1;SDS_P2;PMS_P1;PMS_P2;Temp;Humidity;BMP_temperature;BMP_pressure;BME280_temperature;BME280_humidity;BME280_pressure;Samples;Min_cycle;Max_cycle;Signal;HPM_P1;HPM_P2
2023/01/29 00:01:53;;;;;;;46.83;24.60;;;-1.80;99.90;;;;;;5063180;28;20201;-82
2023/01/29 00:04:20;;;;;;;40.30;24.52;;;-1.80;99.90;;;;;;5067274;28;20226;-81
2023/01/29 00:06:47;;;;;;;41.40;23.75;;;-1.80;99.90;;;;;;5062227;28;20225;-81
2023/01/29 00:09:14;;;;;;;45.42;25.40;;;-1.80;99.90;;;;;;5062307;28;20293;-82
2023/01/29 00:11:41;;;;;;;42.72;25.05;;;-1.80;99.90;;;;;;5062400;28;20220;-80
2023/01/29 00:14:08;;;;;;;44.33;24.13;;;-1.80;99.90;;;;;;5073984;28;20211;-80
2023/01/29 00:16:35;;;;;;;41.72;23.05;;;-1.80;99.90;;;;;;5060705;28;20304;-80
2023/01/29 00:19:04;;;;;;;42.53;25.25;;;-1.90;99.90;;;;;;5062602;28;20201;-79
2023/01/29 00:21:32;;;;;;;49.65;24.42;;;-1.80;99.90;;;;;;5055979;28;20208;-80
2023/01/29 00:23:59;;;;;;;44.92;25.08;;;-1.80;99.90;;;;;;5061527;28;20203;-81
2023/01/29 00:26:26;;;;;;;45.42;25.40;;;-1.80;99.90;;;;;;5059184;28;20233;-80
2023/01/29 00:28:53;;;;;;;49.58;26.10;;;-1.80;99.90;;;;;;5063194;28;20217;-80
2023/01/29 00:31:22;;;;;;;45.90;25.83;;;-1.80;99.90;;;;;;5059458;28;20201;-81
2023/01/29 00:33:49;;;;;;;46.47;23.67;;;-1.80;99.90;;;;;;5071220;28;20564;-81
2023/01/29 00:36:18;;;;;;;45.13;24.90;;;-1.80;99.90;;;;;;5063363;28;20222;-81
2023/01/29 00:38:53;;;;;;;43.20;24.05;;;-1.80;99.90;;;;;;5060933;28;20205;-81
2023/01/29 00:46:50;;;;;;;44.83;25.00;;;-1.90;99.90;;;;;;5056287;28;20450;-80
2023/01/29 00:49:19;;;;;;;50.67;24.80;;;-1.90;99.90;;;;;;5054542;28;20244;-81
2023/01/29 00:52:22;;;;;;;50.33;25.98;;;-1.90;99.90;;;;;;5061447;28;20220;-81
2023/01/29 00:54:35;;;;;;;46.22;25.25;;;-1.90;99.90;;;;;;5061421;28;20658;-80
2023/01/29 00:57:02;;;;;;;52.90;27.23;;;-1.90;99.90;;;;;;5062185;28;20312;-82
2023/01/29 00:59:29;;;;;;;50.33;26.55;;;-1.90;99.90;;;;;;5059905;28;20197;-81
2023/01/29 01:04:55;;;;;;;51.38;25.77;;;-2.00;99.90;;;;;;4991013;28;20195;-82
2023/01/29 01:07:23;;;;;;;47.13;25.52;;;-1.90;99.90;;;;;;4989129;28;20231;-82
2023/01/29 01:12:36;;;;;;;47.42;24.45;;;-2.00;99.90;;;;;;5070536;28;20194;-82
2023/01/29 01:15:04;;;;;;;54.08;25.70;;;-2.00;99.90;;;;;;5052599;28;20207;-83
2023/01/29 01:17:31;;;;;;;49.78;25.45;;;-1.90;99.90;;;;;;5065826;28;20193;-81
2023/01/29 01:19:58;;;;;;;50.67;25.95;;;-2.00;99.90;;;;;;5063635;28;20201;-82
2023/01/29 01:22:26;;;;;;;53.25;25.27;;;-2.00;99.90;;;;;;5063665;28;20203;-81
2023/01/29 01:24:53;;;;;;;47.33;25.75;;;-2.00;99.90;;;;;;5046444;28;20205;-81
2023/01/29 01:27:19;;;;;;;53.08;25.23;;;-2.00;99.90;;;;;;5068576;28;20235;-80
2023/01/29 01:29:46;;;;;;;48.67;24.80;;;-2.00;99.90;;;;;;5070604;28;20205;-79
2023/01/29 01:32:14;;;;;;;57.03;24.70;;;-1.90;99.90;;;;;;5070695;28;20212;-82
2023/01/29 01:34:44;;;;;;;54.30;28.45;;;-1.90;99.90;;;;;;5076465;28;20210;-81
2023/01/29 01:37:11;;;;;;;47.47;25.15;;;-1.90;99.90;;;;;;5068236;28;20624;-80
2023/01/29 01:39:39;;;;;;;54.60;27.45;;;-1.90;99.90;;;;;;5065269;28;20717;-80
2023/01/29 01:42:12;;;;;;;43.20;23.75;;;-1.90;99.90;;;;;;5056345;28;20289;-79
2023/01/29 01:44:57;;;;;;;50.78;26.08;;;-1.90;99.90;;;;;;5054940;28;20211;-79
2023/01/29 01:47:29;;;;;;;42.78;23.38;;;-1.90;99.90;;;;;;5058781;28;20227;-81
2023/01/29 01:50:00;;;;;;;44.97;23.02;;;-1.90;99.90;;;;;;5063191;28;20201;-80
2023/01/29 01:52:29;;;;;;;55.72;25.98;;;-1.90;99.90;;;;;;5050666;28;20223;-79
2023/01/29 01:54:58;;;;;;;53.20;29.13;;;-1.90;99.90;;;;;;5058503;28;20202;-81
2023/01/29 01:57:27;;;;;;;53.10;27.50;;;-1.90;99.90;;;;;;5069920;28;20201;-80
2023/01/29 01:59:58;;;;;;;47.47;25.30;;;-1.90;99.90;;;;;;5063781;28;20195;-80
2023/01/29 02:10:47;;;;;;;57.72;30.00;;;-1.90;99.90;;;;;;5060738;28;20200;-80
2023/01/29 02:13:17;;;;;;;52.83;27.27;;;-1.90;99.90;;;;;;5071207;28;20618;-79
2023/01/29 02:15:45;;;;;;;55.28;27.92;;;-1.90;99.90;;;;;;5055233;28;20283;-79
2023/01/29 02:18:13;;;;;;;50.45;25.52;;;-1.90;99.90;;;;;;5070667;28;20193;-79
2023/01/29 02:20:43;;;;;;;55.20;28.02;;;-1.90;99.90;;;;;;5056270;28;20210;-81
2023/01/29 02:23:34;;;;;;;50.20;27.27;;;-1.90;99.90;;;;;;5067074;28;20208;-80
2023/01/29 02:26:24;;;;;;;54.03;27.88;;;-1.90;99.90;;;;;;5050994;28;20276;-80
2023/01/29 02:29:21;;;;;;;51.53;26.30;;;-2.00;99.90;;;;;;5062660;28;20235;-80
2023/01/29 02:31:55;;;;;;;50.78;28.60;;;-2.00;99.90;;;;;;5062095;28;20677;-79
2023/01/29 02:34:31;;;;;;;51.78;25.65;;;-2.00;99.90;;;;;;5069174;28;20204;-78
2023/01/29 02:37:03;;;;;;;51.85;26.40;;;-1.90;99.90;;;;;;5062233;28;20573;-79
2023/01/29 02:39:37;;;;;;;56.00;27.02;;;-2.00;99.90;;;;;;5060982;28;20277;-78
2023/01/29 02:42:11;;;;;;;49.28;26.08;;;-1.90;99.90;;;;;;5064351;28;20200;-80
2023/01/29 02:44:43;;;;;;;52.70;27.40;;;-2.00;99.90;;;;;;5053774;28;20219;-80
2023/01/29 02:47:17;;;;;;;46.40;25.35;;;-2.00;99.90;;;;;;5053362;28;20225;-80
2023/01/29 02:49:49;;;;;;;49.00;26.88;;;-2.00;99.90;;;;;;5061651;28;20201;-80
2023/01/29 02:52:19;;;;;;;60.22;30.00;;;-2.00;99.90;;;;;;5064273;28;20221;-80
2023/01/29 02:54:53;;;;;;;46.70;25.33;;;-2.00;99.90;;;;;;5072139;28;20284;-78
2023/01/29 02:57:23;;;;;;;51.88;26.50;;;-2.00;99.90;;;;;;5057471;28;20197;-79
2023/01/29 02:59:55;;;;;;;48.90;26.90;;;-2.10;99.90;;;;;;5062258;28;20646;-80
2023/01/29 03:02:30;;;;;;;49.65;25.92;;;-2.10;99.90;;;;;;5063589;28;20216;-79
2023/01/29 03:05:01;;;;;;;55.50;28.70;;;-2.10;99.90;;;;;;5066266;28;20232;-81
2023/01/29 03:07:43;;;;;;;53.00;27.13;;;-2.10;99.90;;;;;;5068343;28;20201;-79
2023/01/29 03:10:15;;;;;;;52.55;26.73;;;-2.00;99.90;;;;;;5057240;28;20213;-79
2023/01/29 03:12:45;;;;;;;55.00;27.50;;;-2.00;99.90;;;;;;5064034;28;20300;-80
2023/01/29 03:15:23;;;;;;;53.97;26.20;;;-2.00;99.90;;;;;;5066169;28;20599;-80
2023/01/29 03:17:55;;;;;;;66.60;31.42;;;-2.00;99.90;;;;;;5071626;28;20190;-83
2023/01/29 03:20:28;;;;;;;59.28;29.67;;;-2.00;99.90;;;;;;5059536;28;20209;-83
2023/01/29 03:23:00;;;;;;;48.63;27.85;;;-1.90;99.90;;;;;;5069563;28;20258;-81
2023/01/29 03:33:53;;;;;;;52.83;28.05;;;-1.90;99.90;;;;;;5066170;28;20213;-81
2023/01/29 03:36:37;;;;;;;50.72;26.05;;;-1.90;99.90;;;;;;5069112;28;20686;-82
2023/01/29 03:39:05;;;;;;;54.92;27.88;;;-1.90;99.90;;;;;;5052192;28;20289;-80
2023/01/29 03:41:36;;;;;;;47.10;27.05;;;-1.90;99.90;;;;;;5060111;28;20228;-80
2023/01/29 03:44:14;;;;;;;56.53;28.00;;;-1.90;99.90;;;;;;5064430;28;20212;-81
2023/01/29 03:46:50;;;;;;;55.42;26.65;;;-1.90;99.90;;;;;;5065565;28;20222;-82
2023/01/29 03:49:24;;;;;;;55.95;25.98;;;-1.90;99.90;;;;;;5060563;28;20659;-81
2023/01/29 03:51:58;;;;;;;45.78;24.70;;;-1.90;99.90;;;;;;5065335;28;20819;-80
2023/01/29 03:54:33;;;;;;;57.22;27.00;;;-1.90;99.90;;;;;;5064050;28;20267;-79
2023/01/29 03:57:05;;;;;;;50.10;26.60;;;-2.00;99.90;;;;;;5063762;28;20280;-80
2023/01/29 03:59:38;;;;;;;48.95;24.63;;;-2.00;99.90;;;;;;5052513;28;20250;-79
2023/01/29 04:02:13;;;;;;;52.30;24.88;;;-2.00;99.90;;;;;;5061001;28;20217;-80
2023/01/29 04:04:43;;;;;;;45.05;25.65;;;-2.00;99.90;;;;;;5066137;28;20673;-82
2023/01/29 04:07:13;;;;;;;47.63;25.05;;;-2.00;99.90;;;;;;5066966;28;20220;-80
2023/01/29 04:09:45;;;;;;;54.05;26.63;;;-2.00;99.90;;;;;;5061845;28;20319;-79
2023/01/29 04:12:16;;;;;;;41.45;23.95;;;-2.00;99.90;;;;;;5062576;28;20220;-79
2023/01/29 04:14:45;;;;;;;51.17;25.80;;;-1.90;99.90;;;;;;5064782;28;20609;-80
2023/01/29 04:17:16;;;;;;;58.03;27.05;;;-1.80;99.90;;;;;;5057145;28;20229;-79
2023/01/29 04:19:44;;;;;;;52.70;27.27;;;-1.80;99.90;;;;;;5061483;28;20205;-80
2023/01/29 04:22:19;;;;;;;53.58;26.17;;;-1.70;99.90;;;;;;5066907;28;20201;-79
2023/01/29 04:24:48;;;;;;;54.17;27.48;;;-1.60;99.90;;;;;;5068552;28;20204;-79
2023/01/29 04:27:25;;;;;;;49.22;24.15;;;-1.50;99.90;;;;;;5088612;22;20232;-78
2023/01/29 04:30:04;;;;;;;47.70;25.33;;;-1.40;99.90;;;;;;5074727;28;20229;-80
2023/01/29 04:32:46;;;;;;;54.58;27.00;;;-1.30;99.90;;;;;;5088714;28;20203;-79
2023/01/29 04:35:26;;;;;;;52.38;25.08;;;-1.30;99.90;;;;;;5087080;28;20228;-80
2023/01/29 04:38:01;;;;;;;51.17;25.65;;;-1.30;99.90;;;;;;5084979;28;20194;-80
2023/01/29 04:40:39;;;;;;;54.72;26.90;;;-1.20;99.90;;;;;;5088120;28;20213;-79
2023/01/29 04:43:09;;;;;;;50.45;25.60;;;-1.20;99.90;;;;;;5088704;28;20199;-80
2023/01/29 04:45:46;;;;;;;48.75;25.60;;;-1.20;99.90;;;;;;5103326;28;20293;-80
2023/01/29 04:48:20;;;;;;;47.70;24.23;;;-1.10;99.90;;;;;;5090445;28;20213;-80
2023/01/29 04:50:56;;;;;;;52.28;26.30;;;-1.00;99.90;;;;;;5085522;28;20229;-79
2023/01/29 04:53:28;;;;;;;52.20;27.55;;;-0.90;99.90;;;;;;5085642;28;20193;-79
2023/01/29 04:55:59;;;;;;;53.83;25.85;;;-0.90;99.90;;;;;;5093447;28;20356;-79
2023/01/29 04:58:30;;;;;;;53.80;28.25;;;-0.80;99.90;;;;;;5095326;28;20189;-78
2023/01/29 05:00:59;;;;;;;50.15;26.17;;;-0.80;99.90;;;;;;5094798;28;20204;-80
2023/01/29 05:03:29;;;;;;;49.78;25.25;;;-0.80;99.90;;;;;;5088115;28;20288;-78
2023/01/29 05:05:59;;;;;;;45.72;23.52;;;-0.70;99.90;;;;;;5096943;28;20319;-79
2023/01/29 05:08:28;;;;;;;49.20;25.45;;;-0.70;99.90;;;;;;5096562;28;20223;-79
2023/01/29 05:10:57;;;;;;;49.85;22.75;;;-0.60;99.90;;;;;;5088690;28;20212;-79
2023/01/29 05:13:26;;;;;;;47.35;23.73;;;-0.60;99.90;;;;;;5099561;28;20200;-79
2023/01/29 05:15:57;;;;;;;50.92;23.35;;;-0.70;99.90;;;;;;5096028;28;20312;-79
2023/01/29 05:18:24;;;;;;;44.58;22.67;;;-0.50;99.90;;;;;;5092661;28;20203;-79
2023/01/29 05:20:55;;;;;;;51.25;24.23;;;-0.50;99.90;;;;;;5092554;28;20209;-78
2023/01/29 05:23:23;;;;;;;44.47;23.55;;;-0.50;99.90;;;;;;5092880;28;20219;-79
2023/01/29 05:25:51;;;;;;;44.38;21.85;;;-0.50;99.90;;;;;;5084837;28;20242;-79
2023/01/29 05:28:17;;;;;;;39.08;22.63;;;-0.60;99.90;;;;;;5091619;28;20227;-81
2023/01/29 05:30:46;;;;;;;43.65;23.23;;;-0.50;99.90;;;;;;5089300;28;20587;-81
2023/01/29 05:33:17;;;;;;;37.92;21.48;;;-0.50;99.90;;;;;;5091648;28;20207;-84
2023/01/29 05:35:45;;;;;;;44.83;22.52;;;-0.50;99.90;;;;;;5080491;28;20230;-81
2023/01/29 05:38:13;;;;;;;42.35;22.88;;;-0.40;99.90;;;;;;5096166;28;20209;-83
2023/01/29 05:40:40;;;;;;;36.28;19.95;;;-0.40;99.90;;;;;;5099668;28;20273;-82
2023/01/29 05:43:14;;;;;;;38.17;21.20;;;-0.40;99.90;;;;;;5097071;28;20210;-80
2023/01/29 05:45:41;;;;;;;42.33;21.98;;;-0.40;99.90;;;;;;5097158;28;20312;-84
2023/01/29 05:48:08;;;;;;;43.95;21.55;;;-0.60;99.90;;;;;;5090722;28;20207;-82
2023/01/29 05:50:35;;;;;;;37.65;20.48;;;-0.50;99.90;;;;;;5090699;28;20203;-81
2023/01/29 05:53:02;;;;;;;36.92;20.15;;;-0.40;99.90;;;;;;5095703;28;20202;-83
2023/01/29 05:55:30;;;;;;;37.63;20.33;;;-0.40;99.90;;;;;;5092366;28;20560;-81
2023/01/29 05:57:57;;;;;;;43.78;25.60;;;-0.30;1.00;;;;;;5083889;28;20201;-81
2023/01/29 06:00:24;;;;;;;37.55;19.90;;;-0.30;1.00;;;;;;5089914;28;20293;-81
2023/01/29 06:02:51;;;;;;;46.30;22.90;;;-0.30;1.00;;;;;;5097049;28;20201;-81
2023/01/29 06:05:18;;;;;;;42.65;20.48;;;-0.30;1.00;;;;;;5095995;28;20201;-84
2023/01/29 06:07:45;;;;;;;37.42;20.92;;;-0.20;1.00;;;;;;5093284;28;20208;-82
2023/01/29 06:10:13;;;;;;;41.28;21.75;;;-0.20;1.00;;;;;;5090406;28;20261;-85
2023/01/29 06:12:41;;;;;;;41.40;22.63;;;-0.10;1.00;;;;;;5092101;28;20267;-82
2023/01/29 06:15:09;;;;;;;33.10;17.92;;;-0.10;1.00;;;;;;5093224;28;20405;-81
2023/01/29 06:17:36;;;;;;;41.95;22.27;;;0.00;1.00;;;;;;5093466;28;20336;-84
2023/01/29 06:20:04;;;;;;;33.70;19.98;;;0.00;1.00;;;;;;5085213;28;20211;-84
2023/01/29 06:22:32;;;;;;;39.58;21.10;;;-0.10;1.00;;;;;;5093366;28;20201;-81
2023/01/29 06:24:59;;;;;;;36.05;20.02;;;0.00;1.00;;;;;;5097032;28;20202;-84
2023/01/29 06:27:26;;;;;;;38.65;20.55;;;0.10;1.00;;;;;;5093099;28;20231;-82
2023/01/29 06:29:54;;;;;;;39.25;21.55;;;0.20;1.00;;;;;;5088698;28;20229;-81
2023/01/29 06:32:21;;;;;;;35.05;20.30;;;0.20;99.90;;;;;;5092593;28;20200;-82
2023/01/29 06:34:47;;;;;;;39.13;20.60;;;0.30;99.90;;;;;;5094348;28;20199;-83
2023/01/29 06:37:14;;;;;;;40.13;21.13;;;0.30;99.90;;;;;;5089483;28;20223;-83
2023/01/29 06:39:41;;;;;;;39.67;20.20;;;0.20;99.90;;;;;;5093496;28;20203;-80
2023/01/29 06:42:08;;;;;;;37.45;19.40;;;0.30;21.30;;;;;;5084596;28;20201;-83
2023/01/29 06:44:35;;;;;;;36.67;20.13;;;0.20;99.90;;;;;;5094332;28;20296;-80
2023/01/29 06:47:04;;;;;;;39.15;20.13;;;0.30;16.50;;;;;;5091298;28;20742;-81
2023/01/29 06:49:30;;;;;;;38.28;18.30;;;0.20;64.00;;;;;;5088000;28;20221;-83
2023/01/29 06:51:57;;;;;;;33.58;18.75;;;0.20;1.00;;;;;;5091756;28;20206;-83
2023/01/29 06:54:24;;;;;;;35.40;18.77;;;0.20;99.90;;;;;;5085484;28;20693;-85
2023/01/29 06:56:51;;;;;;;48.25;25.52;;;0.30;13.30;;;;;;5095249;28;20289;-82
2023/01/29 06:59:18;;;;;;;40.58;21.17;;;0.40;1.00;;;;;;5095070;28;20216;-80
2023/01/29 07:01:45;;;;;;;38.72;22.70;;;0.40;1.00;;;;;;5087876;28;20213;-81
2023/01/29 07:04:13;;;;;;;37.55;20.50;;;0.30;1.00;;;;;;5087423;28;20749;-80
2023/01/29 07:06:40;;;;;;;29.48;17.55;;;0.30;1.00;;;;;;5087962;28;20229;-81
2023/01/29 07:09:07;;;;;;;36.45;20.45;;;0.40;55.40;;;;;;5074091;28;20234;-80
2023/01/29 07:11:36;;;;;;;40.97;20.58;;;0.40;1.00;;;;;;5088982;28;20201;-82
2023/01/29 07:14:03;;;;;;;36.83;20.00;;;0.50;1.00;;;;;;5084582;28;20261;-80
2023/01/29 07:16:30;;;;;;;34.33;18.02;;;0.40;1.00;;;;;;5092990;28;20218;-80
2023/01/29 07:18:57;;;;;;;38.55;18.70;;;0.40;1.00;;;;;;5084927;28;20196;-82
2023/01/29 07:21:25;;;;;;;37.22;19.35;;;0.40;99.90;;;;;;5089817;28;20203;-81
2023/01/29 07:23:52;;;;;;;39.90;21.50;;;0.50;99.90;;;;;;5087268;28;20206;-82
2023/01/29 07:26:18;;;;;;;41.63;21.77;;;0.50;99.90;;;;;;5089093;28;20234;-80
2023/01/29 07:28:45;;;;;;;32.67;19.40;;;0.60;99.90;;;;;;5091293;28;20312;-82
2023/01/29 07:31:13;;;;;;;38.70;20.73;;;0.60;99.90;;;;;;5084920;28;20207;-80
2023/01/29 07:33:42;;;;;;;39.35;20.77;;;0.70;99.90;;;;;;5096423;28;20264;-81
2023/01/29 07:36:10;;;;;;;36.40;21.08;;;0.60;99.90;;;;;;5090660;28;20224;-82
2023/01/29 07:38:38;;;;;;;42.40;21.80;;;0.70;98.80;;;;;;5094795;28;20208;-80
2023/01/29 07:41:05;;;;;;;37.85;21.27;;;0.70;31.40;;;;;;5083744;28;20271;-81
2023/01/29 07:43:32;;;;;;;34.55;20.50;;;0.80;1.00;;;;;;5086535;28;20210;-80
2023/01/29 07:46:02;;;;;;;37.03;20.90;;;0.90;99.90;;;;;;5088073;28;20227;-80
2023/01/29 07:48:29;;;;;;;39.20;22.58;;;0.90;99.90;;;;;;5090256;28;20199;-80
2023/01/29 07:50:57;;;;;;;35.67;20.50;;;1.00;1.00;;;;;;5079620;28;20229;-81
2023/01/29 07:53:24;;;;;;;35.88;19.73;;;0.90;99.90;;;;;;5093096;28;20652;-80
2023/01/29 07:55:52;;;;;;;40.55;22.23;;;0.90;1.00;;;;;;5078381;28;20699;-80
2023/01/29 07:58:19;;;;;;;41.85;22.55;;;1.00;99.90;;;;;;5089625;28;20295;-81
2023/01/29 08:00:46;;;;;;;42.42;21.65;;;1.00;52.40;;;;;;5085039;28;20307;-80
2023/01/29 08:03:15;;;;;;;33.88;20.80;;;1.00;14.20;;;;;;5086837;28;20210;-78
2023/01/29 08:05:42;;;;;;;41.20;22.67;;;1.00;1.00;;;;;;5077880;28;20779;-79
2023/01/29 08:08:09;;;;;;;39.95;20.75;;;1.10;1.00;;;;;;5092785;28;20256;-81
2023/01/29 08:10:36;;;;;;;38.13;19.27;;;1.10;1.00;;;;;;5085138;28;20227;-79
2023/01/29 08:13:05;;;;;;;38.22;21.38;;;1.10;99.90;;;;;;5090462;28;20444;-80
2023/01/29 08:15:33;;;;;;;41.28;22.42;;;1.20;1.00;;;;;;5086430;28;20234;-81
2023/01/29 08:18:01;;;;;;;37.30;19.58;;;1.30;99.90;;;;;;5086560;28;20217;-80
2023/01/29 08:33:20;;;;;;;37.65;22.80;;;1.20;1.00;;;;;;5068725;27;1248183;-78
2023/01/29 08:35:49;;;;;;;36.73;22.43;;;1.70;99.90;;;;;;5109384;28;20218;-81
2023/01/29 08:38:16;;;;;;;40.67;20.77;;;1.80;1.00;;;;;;5107460;28;20519;-81
2023/01/29 08:40:43;;;;;;;37.00;22.35;;;1.80;99.90;;;;;;5102073;28;20547;-81
2023/01/29 08:43:15;;;;;;;39.53;22.00;;;1.70;99.90;;;;;;5103850;28;20215;-78
2023/01/29 08:45:43;;;;;;;35.13;20.90;;;1.60;99.90;;;;;;5105550;28;20210;-80
2023/01/29 08:48:10;;;;;;;40.45;23.15;;;1.70;1.00;;;;;;5107545;28;20295;-80
2023/01/29 08:50:39;;;;;;;42.40;22.17;;;1.60;1.00;;;;;;5105106;28;20206;-80
2023/01/29 08:53:07;;;;;;;41.78;23.60;;;1.60;6.30;;;;;;5103633;28;20295;-79
2023/01/29 08:55:36;;;;;;;36.50;20.90;;;1.60;1.00;;;;;;5101284;28;20518;-79
2023/01/29 08:58:04;;;;;;;39.88;22.73;;;1.60;1.00;;;;;;5105031;28;20451;-79
2023/01/29 09:00:31;;;;;;;39.80;21.13;;;1.50;84.10;;;;;;5099038;28;20204;-80
2023/01/29 09:02:59;;;;;;;37.65;22.20;;;1.50;99.90;;;;;;5104387;28;20228;-79
2023/01/29 09:05:26;;;;;;;40.92;22.90;;;1.50;1.00;;;;;;5106510;28;20200;-81
2023/01/29 09:07:56;;;;;;;46.42;24.75;;;1.60;99.90;;;;;;5109098;28;20196;-81
2023/01/29 09:10:23;;;;;;;46.05;23.15;;;1.70;28.40;;;;;;5107261;28;20199;-78
2023/01/29 09:12:49;;;;;;;37.60;22.83;;;1.80;23.60;;;;;;5102160;28;20217;-78
2023/01/29 09:15:17;;;;;;;42.53;23.60;;;1.80;23.80;;;;;;5107364;28;20238;-78
2023/01/29 09:17:44;;;;;;;42.38;23.63;;;1.70;1.00;;;;;;5103545;28;20460;-75
2023/01/29 09:20:11;;;;;;;44.47;23.15;;;1.70;1.00;;;;;;5104047;28;20208;-75
2023/01/29 09:22:38;;;;;;;40.65;23.52;;;1.80;1.00;;;;;;5099421;28;20226;-75
2023/01/29 09:25:07;;;;;;;36.97;21.88;;;1.80;99.90;;;;;;5100691;28;20226;-73
2023/01/29 09:27:34;;;;;;;39.40;23.05;;;1.70;99.90;;;;;;5097545;28;20199;-76
2023/01/29 09:30:01;;;;;;;40.22;22.05;;;1.70;1.00;;;;;;5093212;28;20207;-77
2023/01/29 09:32:29;;;;;;;41.92;22.92;;;1.70;1.00;;;;;;5087700;28;20212;-76
2023/01/29 09:34:56;;;;;;;43.22;24.65;;;1.70;1.00;;;;;;5109879;22;20216;-76
2023/01/29 09:37:23;;;;;;;40.33;23.92;;;1.60;99.90;;;;;;5011344;28;20221;-79
2023/01/29 09:39:50;;;;;;;41.53;24.17;;;1.60;1.00;;;;;;5013669;28;20217;-77
2023/01/29 09:42:24;;;;;;;41.35;22.48;;;1.80;99.90;;;;;;5015001;28;20219;-76
2023/01/29 09:45:01;;;;;;;43.03;24.10;;;1.80;99.90;;;;;;5027252;28;20212;-75
2023/01/29 09:47:29;;;;;;;40.25;23.67;;;1.70;55.50;;;;;;5036332;28;20292;-77
2023/01/29 09:50:00;;;;;;;41.65;23.08;;;1.60;99.90;;;;;;5034603;28;20210;-76
2023/01/29 09:52:30;;;;;;;44.95;23.55;;;1.60;99.90;;;;;;5033741;28;20728;-76
2023/01/29 09:55:02;;;;;;;43.80;24.15;;;1.50;99.90;;;;;;5034154;28;20226;-76
2023/01/29 09:57:37;;;;;;;40.15;24.25;;;1.60;99.90;;;;;;5034452;28;20209;-77
2023/01/29 10:00:05;;;;;;;46.10;23.07;;;1.50;1.00;;;;;;5034540;28;20210;-77
2023/01/29 10:02:55;;;;;;;46.72;24.55;;;1.50;99.90;;;;;;5034205;28;20483;-77
2023/01/29 10:05:37;;;;;;;39.42;21.52;;;1.60;99.90;;;;;;5034523;28;20232;-77
2023/01/29 10:08:35;;;;;;;48.88;25.90;;;1.50;99.90;;;;;;5029459;28;20225;-76
2023/01/29 10:11:10;;;;;;;36.45;21.77;;;1.40;1.00;;;;;;5035199;28;20528;-76
2023/01/29 10:13:46;;;;;;;37.90;20.48;;;1.50;1.00;;;;;;5033244;28;20206;-77
2023/01/29 10:16:34;;;;;;;44.00;22.40;;;1.50;1.00;;;;;;5014325;28;20249;-77
2023/01/29 10:19:31;;;;;;;41.80;22.33;;;1.60;99.90;;;;;;5014397;28;20456;-77
2023/01/29 10:22:36;;;;;;;41.60;24.65;;;1.60;1.00;;;;;;4960638;28;20234;-76
2023/01/29 10:25:05;;;;;;;38.60;23.35;;;1.60;1.00;;;;;;5018512;28;20224;-76
2023/01/29 10:27:34;;;;;;;43.30;23.60;;;1.70;99.90;;;;;;5034277;28;20230;-77
2023/01/29 10:30:08;;;;;;;38.25;22.40;;;1.90;99.90;;;;;;5034431;28;20247;-79
2023/01/29 10:32:38;;;;;;;44.90;23.90;;;1.70;99.90;;;;;;5034471;28;20623;-78
2023/01/29 10:35:13;;;;;;;48.03;26.67;;;1.80;99.90;;;;;;5033582;28;20282;-77
2023/01/29 10:37:42;;;;;;;43.65;22.10;;;1.80;13.90;;;;;;5034674;28;20202;-76
2023/01/29 10:40:20;;;;;;;45.28;26.63;;;1.80;99.90;;;;;;5034539;28;20216;-77
2023/01/29 10:42:52;;;;;;;41.78;23.80;;;1.80;1.00;;;;;;5033273;28;20229;-78
2023/01/29 10:45:30;;;;;;;41.88;22.73;;;2.00;1.00;;;;;;5032853;28;20313;-77
2023/01/29 10:48:24;;;;;;;41.92;24.48;;;2.10;1.00;;;;;;5033456;28;20216;-77
2023/01/29 10:50:58;;;;;;;37.25;22.00;;;2.20;99.90;;;;;;5033901;28;20205;-77
2023/01/29 10:53:40;;;;;;;36.42;21.45;;;2.40;99.90;;;;;;5032771;28;20668;-78
2023/01/29 10:56:18;;;;;;;45.33;24.33;;;2.50;99.90;;;;;;5033357;28;20616;-77
2023/01/29 10:58:51;;;;;;;39.88;21.48;;;2.50;99.90;;;;;;5033383;28;20554;-78
2023/01/29 11:01:19;;;;;;;47.30;25.97;;;2.50;72.80;;;;;;5029227;28;20202;-76
2023/01/29 11:03:54;;;;;;;37.10;22.17;;;2.60;1.00;;;;;;5017689;28;20457;-76
2023/01/29 11:06:24;;;;;;;38.47;21.60;;;2.70;1.00;;;;;;5032400;28;21029;-77
2023/01/29 11:08:56;;;;;;;38.47;19.25;;;2.60;1.00;;;;;;5032947;28;20506;-78
2023/01/29 11:11:31;;;;;;;35.30;21.63;;;2.60;1.00;;;;;;5033489;28;20216;-77
2023/01/29 11:14:06;;;;;;;38.27;21.30;;;2.70;1.00;;;;;;5037169;28;20441;-76
2023/01/29 11:16:41;;;;;;;38.63;22.00;;;2.70;1.00;;;;;;5032963;28;20526;-75
2023/01/29 11:19:07;;;;;;;39.30;21.43;;;2.80;1.00;;;;;;5033232;28;20415;-76
2023/01/29 11:21:51;;;;;;;40.43;21.43;;;2.90;99.90;;;;;;5030035;28;20460;-77
2023/01/29 11:24:19;;;;;;;39.13;23.13;;;2.70;1.00;;;;;;5031766;28;20884;-76
2023/01/29 11:26:47;;;;;;;43.57;23.80;;;2.80;1.00;;;;;;5032291;28;20492;-77
2023/01/29 11:29:39;;;;;;;39.10;22.47;;;2.90;1.00;;;;;;5024118;28;20475;-77
2023/01/29 11:32:13;;;;;;;39.70;20.90;;;2.80;99.90;;;;;;5025028;28;20462;-76
2023/01/29 11:34:59;;;;;;;36.20;21.00;;;2.80;99.90;;;;;;5021551;28;20462;-78
2023/01/29 11:37:33;;;;;;;38.63;22.30;;;2.60;1.00;;;;;;5026019;28;20637;-77
2023/01/29 11:40:00;;;;;;;35.17;20.43;;;2.40;1.00;;;;;;5026864;28;20464;-83
2023/01/29 11:42:31;;;;;;;37.00;21.67;;;2.60;1.00;;;;;;5024116;28;20491;-80
2023/01/29 11:44:58;;;;;;;37.77;19.23;;;2.70;99.90;;;;;;5032101;28;20480;-77
2023/01/29 11:47:28;;;;;;;32.70;19.20;;;2.70;1.00;;;;;;5024390;28;20476;-78
2023/01/29 11:49:57;;;;;;;40.00;23.30;;;2.70;1.00;;;;;;5032572;28;20471;-77
2023/01/29 11:52:27;;;;;;;36.22;19.38;;;3.00;99.90;;;;;;5033564;28;20431;-78
2023/01/29 11:54:57;;;;;;;35.57;19.90;;;3.00;99.90;;;;;;5027721;28;20198;-78
2023/01/29 11:57:28;;;;;;;49.47;21.93;;;3.00;99.90;;;;;;5022356;28;20541;-78
2023/01/29 11:59:58;;;;;;;37.23;19.97;;;3.00;99.90;;;;;;5018473;28;20976;-79
2023/01/29 12:02:31;;;;;;;33.97;19.53;;;2.90;99.90;;;;;;5035463;28;20511;-79
2023/01/29 12:05:03;;;;;;;35.10;18.57;;;3.00;99.90;;;;;;5037751;28;20575;-77
2023/01/29 12:07:33;;;;;;;37.10;20.73;;;2.90;99.90;;;;;;5034259;28;20535;-77
2023/01/29 12:10:00;;;;;;;36.50;20.37;;;2.80;99.90;;;;;;5032363;28;20441;-77
2023/01/29 12:12:39;;;;;;;40.00;21.53;;;2.70;99.90;;;;;;5032933;28;20543;-77
2023/01/29 12:15:21;;;;;;;36.90;20.80;;;2.80;99.90;;;;;;5023795;28;20545;-78
2023/01/29 12:18:04;;;;;;;44.10;22.03;;;2.80;1.00;;;;;;5023958;28;20555;-77
2023/01/29 12:20:37;;;;;;;37.40;20.63;;;2.80;99.90;;;;;;5031252;28;20561;-77
2023/01/29 12:23:11;;;;;;;37.37;19.93;;;3.00;99.90;;;;;;5030057;28;20564;-77
2023/01/29 12:25:48;;;;;;;36.73;19.37;;;3.20;99.90;;;;;;5028476;28;20484;-79
2023/01/29 12:28:24;;;;;;;39.37;20.43;;;3.20;99.90;;;;;;5032380;28;20472;-79
2023/01/29 12:31:04;;;;;;;36.00;19.50;;;3.30;99.90;;;;;;5022047;28;20475;-78
2023/01/29 12:33:41;;;;;;;33.03;20.03;;;3.10;99.90;;;;;;5027187;28;20467;-76
2023/01/29 12:36:14;;;;;;;42.57;21.70;;;3.20;99.90;;;;;;5039303;28;20476;-77
2023/01/29 12:38:43;;;;;;;34.80;19.20;;;3.00;99.90;;;;;;5039883;28;20468;-78
2023/01/29 12:41:28;;;;;;;36.63;21.10;;;3.10;99.90;;;;;;5019511;28;20470;-78
2023/01/29 12:43:59;;;;;;;33.17;21.20;;;3.10;99.90;;;;;;5023827;28;20550;-80
2023/01/29 12:46:28;;;;;;;33.07;18.80;;;3.20;99.90;;;;;;5030071;28;20473;-78
2023/01/29 12:49:02;;;;;;;35.30;19.13;;;3.30;99.90;;;;;;5026390;28;20962;-78
2023/01/29 12:51:35;;;;;;;29.83;17.03;;;3.30;99.90;;;;;;5035326;28;20532;-78
2023/01/29 12:54:07;;;;;;;33.37;18.50;;;3.30;99.90;;;;;;5023842;28;20564;-79
2023/01/29 12:56:38;;;;;;;33.43;20.10;;;3.40;99.90;;;;;;5028110;28;20557;-77
2023/01/29 12:59:15;;;;;;;34.77;19.53;;;3.40;99.90;;;;;;5024026;28;20491;-77
2023/01/29 13:01:48;;;;;;;33.33;16.90;;;3.30;99.90;;;;;;5027811;28;20456;-78
2023/01/29 13:04:24;;;;;;;32.90;17.27;;;3.30;99.90;;;;;;5028038;28;20833;-78
2023/01/29 13:06:55;;;;;;;31.23;18.77;;;3.30;99.90;;;;;;5025652;28;20468;-78
2023/01/29 13:09:26;;;;;;;29.40;17.57;;;3.20;99.90;;;;;;5034753;28;20456;-78
2023/01/29 13:11:56;;;;;;;33.03;20.10;;;3.20;99.90;;;;;;5026764;28;20839;-79
2023/01/29 13:14:27;;;;;;;29.60;18.97;;;3.20;99.90;;;;;;5030974;28;20453;-78
2023/01/29 13:17:00;;;;;;;32.00;17.77;;;3.20;99.90;;;;;;5025210;28;20568;-78
2023/01/29 13:19:32;;;;;;;25.70;16.50;;;3.30;99.90;;;;;;5033908;28;20527;-78
2023/01/29 13:22:04;;;;;;;30.63;18.00;;;3.30;99.90;;;;;;5028202;28;20467;-78
2023/01/29 13:24:37;;;;;;;34.33;19.87;;;3.20;99.90;;;;;;5026670;28;20867;-82
2023/01/29 13:27:04;;;;;;;27.63;16.73;;;3.10;99.90;;;;;;5027666;28;20890;-77
2023/01/29 13:29:31;;;;;;;30.73;17.23;;;3.20;99.90;;;;;;5034340;28;20552;-77
2023/01/29 13:32:00;;;;;;;31.67;18.30;;;3.20;99.90;;;;;;5028229;28;20938;-78
2023/01/29 13:34:30;;;;;;;29.77;16.80;;;3.10;99.90;;;;;;5028996;28;20468;-76
2023/01/29 13:37:00;;;;;;;32.50;18.00;;;3.10;99.90;;;;;;5022045;28;20522;-79